Time;durP1;ratioP1;P1;durP2;ratioP2;P2;SDS_P1;SDS_P2;PMS_P1;PMS_P2;Temp;Humidity;BMP_temperature;BMP_pressure;BME280_temperature;BME280_humidity;BME280_pressure;Samples;Min_cycle;Max_cycle;Signal;HPM_P1;HPM_P2
2021/05/23 00:00:38;;;;;;;12.13;6.60;;;10.00;99.90;;;;;;5084731;28;20415;-77
2021/05/23 00:03:08;;;;;;;18.57;7.10;;;10.00;99.90;;;;;;5090929;28;20270;-77
2021/05/23 00:05:39;;;;;;;17.10;7.30;;;10.10;99.90;;;;;;5092916;28;20195;-77
2021/05/23 00:08:09;;;;;;;13.33;6.90;;;10.10;99.90;;;;;;5083418;28;20647;-77
2021/05/23 00:10:40;;;;;;;12.77;7.03;;;10.00;99.90;;;;;;5086152;28;20607;-77
2021/05/23 00:13:10;;;;;;;15.30;7.07;;;10.10;99.90;;;;;;5077623;28;20203;-77
2021/05/23 00:15:41;;;;;;;13.67;7.00;;;10.10;99.90;;;;;;5087205;28;20195;-78
2021/05/23 00:18:10;;;;;;;12.43;6.97;;;10.10;99.90;;;;;;5085382;28;20218;-77
2021/05/23 00:20:38;;;;;;;18.00;7.27;;;10.20;99.90;;;;;;5096218;28;20225;-75
2021/05/23 00:23:08;;;;;;;11.90;6.73;;;10.10;99.90;;;;;;5091945;28;20219;-77
2021/05/23 00:25:37;;;;;;;13.60;7.07;;;10.10;99.90;;;;;;5091578;28;20191;-77
2021/05/23 00:28:05;;;;;;;11.00;6.47;;;10.10;99.90;;;;;;5094191;28;20245;-77
2021/05/23 00:30:33;;;;;;;14.43;6.63;;;10.10;99.90;;;;;;5085339;28;20729;-79
2021/05/23 00:33:01;;;;;;;12.33;6.47;;;10.10;99.90;;;;;;5089648;28;20211;-78
2021/05/23 00:35:29;;;;;;;16.47;7.17;;;10.10;99.90;;;;;;5087533;28;20203;-80
2021/05/23 00:37:57;;;;;;;11.20;6.30;;;10.10;99.90;;;;;;5089162;28;20191;-79
2021/05/23 00:40:26;;;;;;;15.57;6.57;;;10.10;99.90;;;;;;5091855;28;20230;-79
2021/05/23 00:42:54;;;;;;;13.37;6.97;;;10.00;99.90;;;;;;5086475;28;20227;-79
2021/05/23 00:45:22;;;;;;;13.97;6.60;;;10.00;99.90;;;;;;5091395;28;20199;-79
2021/05/23 00:47:50;;;;;;;10.43;6.40;;;10.00;99.90;;;;;;5073284;28;20617;-80
2021/05/23 00:50:20;;;;;;;11.77;6.63;;;9.90;99.90;;;;;;5090108;28;20241;-78
2021/05/23 00:52:49;;;;;;;15.93;6.53;;;9.90;99.90;;;;;;5089434;28;20284;-78
2021/05/23 00:55:19;;;;;;;14.37;6.03;;;9.90;99.90;;;;;;5084782;28;20241;-78
2021/05/23 00:57:47;;;;;;;17.07;6.50;;;9.90;99.90;;;;;;5085383;28;20413;-78
2021/05/23 01:01:04;;;;;;;10.30;5.87;;;9.90;99.90;;;;;;5085780;28;20234;-78
2021/05/23 01:04:00;;;;;;;15.37;5.97;;;9.90;99.90;;;;;;5089497;28;20199;-78
2021/05/23 01:06:31;;;;;;;12.20;5.60;;;9.90;99.90;;;;;;5039235;28;20203;-76
2021/05/23 01:08:59;;;;;;;14.87;6.10;;;9.90;99.90;;;;;;5080944;28;20187;-78
2021/05/23 01:12:09;;;;;;;9.07;6.20;;;9.90;99.90;;;;;;5085238;28;20600;-78
2021/05/23 01:14:58;;;;;;;13.47;6.00;;;9.90;99.90;;;;;;5088000;28;20222;-78
2021/05/23 01:17:37;;;;;;;16.03;5.50;;;9.90;99.90;;;;;;5088734;28;20456;-78
2021/05/23 01:20:33;;;;;;;13.67;5.47;;;9.90;99.90;;;;;;5083706;28;20199;-77
2021/05/23 01:23:09;;;;;;;17.03;5.67;;;9.90;99.90;;;;;;5082519;28;20219;-75
2021/05/23 01:25:39;;;;;;;14.83;5.07;;;9.90;99.90;;;;;;5086041;28;20389;-77
2021/05/23 01:28:07;;;;;;;19.30;5.10;;;9.90;99.90;;;;;;5077293;28;20196;-77
2021/05/23 01:30:43;;;;;;;8.60;4.60;;;9.90;99.90;;;;;;5090062;28;20241;-78
2021/05/23 01:33:14;;;;;;;8.50;4.37;;;9.90;99.90;;;;;;5080453;28;20223;-77
2021/05/23 01:35:46;;;;;;;11.27;4.43;;;9.90;99.90;;;;;;5082727;28;20223;-78
2021/05/23 01:38:16;;;;;;;16.37;5.03;;;9.90;99.90;;;;;;5085032;28;20678;-77
2021/05/23 01:40:47;;;;;;;14.63;4.27;;;9.90;99.90;;;;;;5091457;28;20195;-77
2021/05/23 01:43:15;;;;;;;8.83;4.07;;;9.90;99.90;;;;;;5088697;28;20299;-77
2021/05/23 01:45:43;;;;;;;12.00;4.43;;;9.90;99.90;;;;;;5081285;28;20197;-77
2021/05/23 01:48:11;;;;;;;14.00;5.00;;;9.90;99.90;;;;;;5076764;28;20179;-77
2021/05/23 01:50:41;;;;;;;12.17;4.50;;;9.90;99.90;;;;;;5066347;28;20210;-76
2021/05/23 01:53:09;;;;;;;11.17;3.90;;;9.80;99.90;;;;;;5080943;28;20276;-76
2021/05/23 01:55:37;;;;;;;12.83;3.93;;;9.80;99.90;;;;;;5087447;28;20618;-77
2021/05/23 01:58:06;;;;;;;10.07;3.73;;;9.80;99.90;;;;;;5083582;28;20196;-77
2021/05/23 02:00:40;;;;;;;16.20;3.70;;;9.80;99.90;;;;;;5086732;28;20655;-76
2021/05/23 02:03:11;;;;;;;10.47;3.73;;;9.80;99.90;;;;;;5074298;28;20245;-76
2021/05/23 02:05:43;;;;;;;7.57;3.80;;;9.80;99.90;;;;;;5081153;28;20218;-75
2021/05/23 02:08:18;;;;;;;13.43;4.03;;;9.80;99.90;;;;;;5081104;28;20195;-75
2021/05/23 02:10:49;;;;;;;11.80;4.30;;;9.80;99.90;;;;;;5084937;28;20195;-74
2021/05/23 02:13:20;;;;;;;11.63;3.77;;;9.80;99.90;;;;;;5086046;28;20703;-75
2021/05/23 02:15:48;;;;;;;15.43;4.10;;;9.80;99.90;;;;;;5081681;28;20191;-75
2021/05/23 02:18:17;;;;;;;12.37;3.50;;;9.80;99.90;;;;;;5081717;28;20226;-75
2021/05/23 02:20:46;;;;;;;12.67;3.93;;;9.80;99.90;;;;;;5085185;28;20235;-75
2021/05/23 02:23:16;;;;;;;12.53;3.97;;;9.80;99.90;;;;;;5086342;28;20285;-75
2021/05/23 02:25:44;;;;;;;9.97;3.43;;;9.70;99.90;;;;;;5091127;28;20476;-76
2021/05/23 02:28:13;;;;;;;14.50;3.93;;;9.70;99.90;;;;;;5087417;28;20560;-76
2021/05/23 02:30:44;;;;;;;16.80;4.30;;;9.70;99.90;;;;;;5091252;28;20230;-77
2021/05/23 02:33:14;;;;;;;11.17;3.73;;;9.70;99.90;;;;;;5085324;28;20307;-76
2021/05/23 02:35:44;;;;;;;14.37;4.20;;;9.70;99.90;;;;;;5087435;28;20214;-76
2021/05/23 02:38:13;;;;;;;15.03;4.47;;;9.70;99.90;;;;;;5085984;28;20216;-75
2021/05/23 02:40:43;;;;;;;9.70;3.97;;;9.70;99.90;;;;;;5085915;28;20192;-76
2021/05/23 02:43:12;;;;;;;21.07;4.43;;;9.60;99.90;;;;;;5091260;28;20669;-76
2021/05/23 02:45:42;;;;;;;12.97;4.03;;;9.60;99.90;;;;;;5089460;28;20229;-77
2021/05/23 02:48:11;;;;;;;16.70;4.03;;;9.60;99.90;;;;;;5092312;28;20195;-77
2021/05/23 02:50:42;;;;;;;11.80;3.93;;;9.60;99.90;;;;;;5093643;28;20878;-76
2021/05/23 02:53:11;;;;;;;11.83;4.33;;;9.50;99.90;;;;;;5092033;28;20222;-75
2021/05/23 02:55:41;;;;;;;13.27;3.80;;;9.50;99.90;;;;;;5094971;28;20248;-76
2021/05/23 02:58:11;;;;;;;11.57;4.30;;;9.50;99.90;;;;;;5088930;28;20245;-73
2021/05/23 03:00:41;;;;;;;11.20;3.70;;;9.50;99.90;;;;;;5081550;28;20696;-76
2021/05/23 03:03:10;;;;;;;15.97;4.30;;;9.50;99.90;;;;;;5089242;28;20264;-75
2021/05/23 03:05:38;;;;;;;13.90;3.67;;;9.40;99.90;;;;;;5086656;28;20220;-75
2021/05/23 03:08:07;;;;;;;13.83;3.70;;;9.40;99.90;;;;;;5082988;28;20201;-75
2021/05/23 03:10:37;;;;;;;18.63;4.37;;;9.30;99.90;;;;;;5091176;28;20195;-76
2021/05/23 03:13:07;;;;;;;13.87;4.03;;;9.30;99.90;;;;;;5092293;28;20242;-75
2021/05/23 03:15:36;;;;;;;10.33;4.00;;;9.20;99.90;;;;;;5079660;28;20200;-76
2021/05/23 03:18:06;;;;;;;10.23;4.00;;;9.10;99.90;;;;;;5089529;28;20249;-75
2021/05/23 03:20:35;;;;;;;13.50;3.73;;;9.20;99.90;;;;;;5071519;28;20288;-75
2021/05/23 03:23:03;;;;;;;20.27;4.23;;;9.10;99.90;;;;;;5091417;28;20214;-75
2021/05/23 03:25:31;;;;;;;8.90;3.60;;;9.00;99.90;;;;;;5092081;28;20570;-75
2021/05/23 03:28:00;;;;;;;15.67;4.23;;;9.00;99.90;;;;;;5083885;28;20227;-76
2021/05/23 03:30:31;;;;;;;13.47;3.63;;;8.90;99.90;;;;;;5099536;28;20190;-76
2021/05/23 03:32:59;;;;;;;12.97;3.67;;;8.90;99.90;;;;;;5087399;28;20211;-76
2021/05/23 03:35:28;;;;;;;11.60;3.37;;;8.80;99.90;;;;;;5089492;28;20203;-75
2021/05/23 03:37:57;;;;;;;13.30;3.40;;;8.80;99.90;;;;;;5096652;28;20211;-75
2021/05/23 03:40:25;;;;;;;18.53;3.87;;;8.70;99.90;;;;;;5091659;28;20194;-75
2021/05/23 03:42:54;;;;;;;12.87;4.00;;;8.60;99.90;;;;;;5084099;28;20198;-75
2021/05/23 03:45:23;;;;;;;11.40;3.83;;;8.60;99.90;;;;;;5083691;28;20685;-76
2021/05/23 03:47:51;;;;;;;11.40;3.23;;;8.60;99.90;;;;;;5092315;28;20205;-74
2021/05/23 03:50:21;;;;;;;10.43;3.47;;;8.60;99.90;;;;;;5089921;28;20199;-75
2021/05/23 03:52:53;;;;;;;11.30;3.30;;;8.50;99.90;;;;;;5090349;28;20210;-75
2021/05/23 03:55:23;;;;;;;11.80;3.50;;;8.50;99.90;;;;;;5094448;28;20208;-76
2021/05/23 03:57:51;;;;;;;7.93;3.23;;;8.40;99.90;;;;;;5089453;28;20248;-75
2021/05/23 04:00:23;;;;;;;12.33;3.53;;;8.40;99.90;;;;;;5082365;28;20195;-75
2021/05/23 04:02:53;;;;;;;11.57;3.63;;;8.30;99.90;;;;;;5083014;28;20635;-74
2021/05/23 04:05:22;;;;;;;11.83;3.30;;;8.30;99.90;;;;;;5072134;28;20511;-75
2021/05/23 04:07:51;;;;;;;9.33;3.03;;;8.20;99.90;;;;;;5078793;28;20271;-75
2021/05/23 04:10:23;;;;;;;8.03;3.00;;;8.20;99.90;;;;;;5085020;28;20202;-76
2021/05/23 04:12:52;;;;;;;12.93;3.13;;;8.20;99.90;;;;;;5072041;28;20196;-76
2021/05/23 04:15:21;;;;;;;9.83;3.10;;;8.10;99.90;;;;;;5080888;28;20222;-74
2021/05/23 04:17:49;;;;;;;12.97;3.27;;;8.20;99.90;;;;;;5074406;28;20192;-76
2021/05/23 04:20:20;;;;;;;11.17;3.33;;;8.10;99.90;;;;;;5087622;28;20586;-75
2021/05/23 04:22:48;;;;;;;15.63;2.97;;;8.10;99.90;;;;;;5083628;28;20252;-75
2021/05/23 04:25:18;;;;;;;9.70;3.73;;;8.10;99.90;;;;;;5086746;28;20232;-74
2021/05/23 04:27:49;;;;;;;11.90;3.10;;;8.10;99.90;;;;;;5087893;28;20256;-76
2021/05/23 04:30:20;;;;;;;12.10;3.43;;;8.10;99.90;;;;;;5084177;28;20662;-75
2021/05/23 04:32:48;;;;;;;12.17;3.60;;;8.10;99.90;;;;;;5084890;28;20618;-75
2021/05/23 04:35:16;;;;;;;13.27;3.27;;;8.10;99.90;;;;;;5085609;28;20290;-75
2021/05/23 04:37:45;;;;;;;11.27;3.70;;;8.10;99.90;;;;;;5086252;28;20717;-74
2021/05/23 04:40:15;;;;;;;10.83;3.87;;;8.10;99.90;;;;;;5086514;28;20608;-74
2021/05/23 04:42:44;;;;;;;9.47;3.50;;;8.10;99.90;;;;;;5080253;28;20200;-75
2021/05/23 04:45:32;;;;;;;11.43;3.40;;;8.20;99.90;;;;;;5083482;28;20198;-75
2021/05/23 04:48:00;;;;;;;15.73;3.80;;;8.20;99.90;;;;;;5075225;28;20192;-74
2021/05/23 04:50:28;;;;;;;12.37;3.53;;;8.20;99.90;;;;;;5080716;28;20235;-74
2021/05/23 04:52:56;;;;;;;14.53;3.97;;;8.30;99.90;;;;;;5090873;28;20191;-74
2021/05/23 04:55:24;;;;;;;14.43;3.50;;;8.30;99.90;;;;;;5080594;28;20269;-74
2021/05/23 04:57:56;;;;;;;9.23;3.50;;;8.30;99.90;;;;;;5074980;28;20286;-74
2021/05/23 05:00:24;;;;;;;10.47;3.47;;;8.40;99.90;;;;;;5077819;28;20215;-73
2021/05/23 05:02:52;;;;;;;17.47;3.37;;;8.40;99.90;;;;;;5084818;28;20195;-74
2021/05/23 05:05:20;;;;;;;13.00;3.67;;;8.40;99.90;;;;;;5085799;28;20380;-73
2021/05/23 05:07:48;;;;;;;5.63;2.87;;;8.50;99.90;;;;;;5090583;28;20198;-73
2021/05/23 05:10:16;;;;;;;13.30;3.30;;;8.60;99.90;;;;;;5089966;28;20642;-73
2021/05/23 05:12:44;;;;;;;10.47;3.43;;;8.60;99.90;;;;;;5092343;28;20183;-73
2021/05/23 05:15:13;;;;;;;14.27;3.13;;;8.70;99.90;;;;;;5082689;28;20208;-73
2021/05/23 05:17:41;;;;;;;16.17;3.87;;;8.70;99.90;;;;;;5090583;28;20213;-73
2021/05/23 05:20:10;;;;;;;12.53;3.03;;;8.90;99.90;;;;;;5091461;28;20256;-73
2021/05/23 05:22:38;;;;;;;9.87;3.47;;;8.90;99.90;;;;;;5087669;28;20230;-73
2021/05/23 05:25:08;;;;;;;9.77;3.00;;;8.90;99.90;;;;;;5085865;28;20184;-73
2021/05/23 05:27:36;;;;;;;10.60;2.53;;;9.00;99.90;;;;;;5080041;28;20196;-73
2021/05/23 05:30:05;;;;;;;10.10;3.13;;;8.90;99.90;;;;;;5073424;28;20654;-73
2021/05/23 05:32:34;;;;;;;6.83;3.33;;;8.80;99.90;;;;;;5088510;28;20236;-72
2021/05/23 05:35:03;;;;;;;9.97;2.87;;;8.90;99.90;;;;;;5088652;28;20246;-73
2021/05/23 05:37:31;;;;;;;8.77;2.53;;;9.00;99.90;;;;;;5095112;28;20726;-72
2021/05/23 05:39:59;;;;;;;11.10;2.90;;;9.10;99.90;;;;;;5084067;28;20184;-73
2021/05/23 05:42:27;;;;;;;11.03;2.90;;;9.10;99.90;;;;;;5087957;28;20274;-73
2021/05/23 05:44:55;;;;;;;10.33;2.70;;;9.20;99.90;;;;;;5087278;28;20188;-73
2021/05/23 05:47:23;;;;;;;10.20;2.73;;;9.30;99.90;;;;;;5083357;28;20227;-73
2021/05/23 05:49:51;;;;;;;12.27;2.60;;;9.50;99.90;;;;;;5080340;28;20368;-73
2021/05/23 05:52:20;;;;;;;13.03;2.80;;;9.60;99.90;;;;;;5089260;28;20207;-73
2021/05/23 05:54:47;;;;;;;10.50;3.03;;;9.70;99.90;;;;;;5094175;28;20207;-73
2021/05/23 05:57:16;;;;;;;11.80;2.53;;;9.80;99.90;;;;;;5082312;28;20241;-73
2021/05/23 05:59:45;;;;;;;8.53;2.63;;;9.70;99.90;;;;;;5088979;28;20281;-73
2021/05/23 06:02:13;;;;;;;9.70;2.77;;;10.00;99.90;;;;;;5083089;28;20195;-73
2021/05/23 06:04:41;;;;;;;9.30;3.20;;;10.20;99.90;;;;;;5077542;28;20613;-73
2021/05/23 06:07:10;;;;;;;11.73;2.77;;;10.30;99.90;;;;;;5089576;28;21460;-73
2021/05/23 06:09:37;;;;;;;5.33;2.70;;;10.30;99.90;;;;;;5088096;28;20219;-72
2021/05/23 06:12:07;;;;;;;5.07;2.80;;;10.40;99.90;;;;;;5089131;28;20225;-72
2021/05/23 06:14:35;;;;;;;5.27;3.17;;;10.60;99.90;;;;;;5079828;28;20214;-73
2021/05/23 06:17:03;;;;;;;6.83;2.70;;;10.50;99.90;;;;;;5076455;28;20235;-72
2021/05/23 06:19:31;;;;;;;10.50;3.70;;;10.50;99.90;;;;;;5082054;28;20190;-73
2021/05/23 06:21:59;;;;;;;10.20;3.57;;;10.40;99.90;;;;;;5069794;28;20223;-73
2021/05/23 06:24:28;;;;;;;9.53;2.73;;;10.50;99.90;;;;;;5100095;28;20215;-73
2021/05/23 06:26:56;;;;;;;11.80;3.40;;;10.60;99.90;;;;;;5075767;28;20227;-73
2021/05/23 06:29:23;;;;;;;9.30;2.60;;;10.70;99.90;;;;;;5086924;28;20227;-73
2021/05/23 06:31:51;;;;;;;6.83;2.97;;;10.90;99.90;;;;;;5088898;28;20192;-73
2021/05/23 06:34:19;;;;;;;11.87;3.27;;;11.00;99.90;;;;;;5081249;28;20199;-72
2021/05/23 06:36:47;;;;;;;11.10;2.90;;;11.00;99.90;;;;;;5095299;28;20240;-73
2021/05/23 06:39:15;;;;;;;8.07;2.77;;;11.20;99.90;;;;;;5086793;28;20191;-73
2021/05/23 06:41:44;;;;;;;9.57;2.60;;;11.10;99.90;;;;;;5071409;28;20206;-73
2021/05/23 06:44:12;;;;;;;5.97;2.50;;;11.20;99.90;;;;;;5072580;28;20714;-73
2021/05/23 06:46:41;;;;;;;6.40;2.47;;;11.30;99.90;;;;;;5072507;28;20249;-73
2021/05/23 06:49:09;;;;;;;4.37;2.50;;;11.20;99.90;;;;;;5088076;28;20192;-72
2021/05/23 06:51:37;;;;;;;6.63;2.43;;;11.30;99.90;;;;;;5094009;28;20191;-72
2021/05/23 06:54:05;;;;;;;3.20;2.10;;;11.20;99.90;;;;;;5092359;28;20196;-73
2021/05/23 06:56:34;;;;;;;5.23;2.30;;;11.20;99.90;;;;;;5086136;28;22237;-72
2021/05/23 06:59:03;;;;;;;4.23;2.00;;;11.60;99.90;;;;;;5106075;28;20282;-73
2021/05/23 07:01:32;;;;;;;5.40;2.00;;;11.70;99.90;;;;;;5081827;28;20547;-73
2021/05/23 07:04:00;;;;;;;3.90;1.97;;;11.80;99.90;;;;;;5090530;28;20566;-73
2021/05/23 07:06:27;;;;;;;5.07;2.00;;;12.10;99.90;;;;;;5083557;28;20246;-73
2021/05/23 07:08:55;;;;;;;5.10;2.13;;;12.10;99.90;;;;;;5088494;28;20196;-73
2021/05/23 07:11:23;;;;;;;2.23;1.70;;;12.10;99.90;;;;;;5090883;28;20260;-73
2021/05/23 07:13:53;;;;;;;3.87;1.63;;;12.20;99.90;;;;;;5086217;28;20187;-74
2021/05/23 07:16:22;;;;;;;11.10;2.30;;;12.50;99.90;;;;;;5077864;28;20577;-73
2021/05/23 07:18:50;;;;;;;8.80;2.47;;;12.70;99.90;;;;;;5090758;28;20245;-73
2021/05/23 07:21:18;;;;;;;8.00;1.97;;;12.80;99.90;;;;;;5087272;28;20255;-74
2021/05/23 07:23:46;;;;;;;6.87;2.10;;;12.70;99.90;;;;;;5087882;28;20231;-73
2021/05/23 07:26:14;;;;;;;7.37;1.97;;;12.60;99.90;;;;;;5080066;28;20659;-73
2021/05/23 07:28:42;;;;;;;3.87;1.70;;;12.40;99.90;;;;;;5080332;28;20245;-74
2021/05/23 07:31:14;;;;;;;6.63;2.40;;;12.30;99.90;;;;;;5082954;28;20252;-74
2021/05/23 07:33:42;;;;;;;4.80;2.10;;;12.50;99.90;;;;;;5082123;28;20666;-75
2021/05/23 07:36:12;;;;;;;4.40;2.10;;;12.80;99.90;;;;;;5091313;28;20219;-73
2021/05/23 07:38:41;;;;;;;9.60;2.13;;;12.80;99.90;;;;;;5093095;28;20250;-73
2021/05/23 07:41:10;;;;;;;4.90;1.90;;;12.80;99.90;;;;;;5095292;28;20196;-74
2021/05/23 07:43:39;;;;;;;9.73;2.23;;;13.00;99.90;;;;;;5088352;28;20209;-74
2021/05/23 07:46:07;;;;;;;8.83;2.27;;;13.20;99.90;;;;;;5089101;28;20212;-73
2021/05/23 07:48:36;;;;;;;5.23;2.13;;;13.60;99.90;;;;;;5088779;28;20198;-74
2021/05/23 07:51:05;;;;;;;5.07;2.00;;;13.70;99.90;;;;;;5089998;28;20551;-74
2021/05/23 07:53:32;;;;;;;8.80;2.27;;;13.70;99.90;;;;;;5078812;28;20306;-75
2021/05/23 07:56:00;;;;;;;4.33;1.93;;;13.80;99.90;;;;;;5086821;28;20307;-74
2021/05/23 07:58:28;;;;;;;3.30;1.80;;;14.00;99.90;;;;;;5088428;28;20244;-75
2021/05/23 08:00:56;;;;;;;5.97;1.90;;;13.80;99.90;;;;;;5087941;28;20651;-74
2021/05/23 08:03:26;;;;;;;4.67;2.17;;;13.30;99.90;;;;;;5081284;28;20199;-74
2021/05/23 08:05:54;;;;;;;5.43;2.13;;;13.10;99.90;;;;;;5090612;28;20221;-74
2021/05/23 08:08:23;;;;;;;5.43;2.30;;;13.20;99.90;;;;;;5087166;28;20199;-74
2021/05/23 08:10:51;;;;;;;8.13;2.10;;;13.30;99.90;;;;;;5081698;28;20187;-75
2021/05/23 08:13:19;;;;;;;6.33;2.40;;;13.20;99.90;;;;;;5077166;28;20199;-74
2021/05/23 08:15:47;;;;;;;3.20;1.90;;;13.50;99.90;;;;;;5079579;28;20294;-73
2021/05/23 08:18:18;;;;;;;5.53;1.93;;;13.40;99.90;;;;;;5074456;28;20187;-75
2021/05/23 08:20:54;;;;;;;4.63;1.83;;;14.00;99.90;;;;;;5082966;28;20291;-75
2021/05/23 08:23:24;;;;;;;6.00;2.17;;;14.20;99.90;;;;;;5073607;28;20227;-72
2021/05/23 08:25:53;;;;;;;3.77;1.50;;;13.70;99.90;;;;;;5079818;28;20202;-74
2021/05/23 08:28:21;;;;;;;4.63;1.93;;;13.00;99.90;;;;;;5079693;28;20191;-73
2021/05/23 08:30:49;;;;;;;6.40;2.00;;;12.80;99.90;;;;;;5085624;28;20258;-73
2021/05/23 08:33:18;;;;;;;4.20;1.83;;;12.60;99.90;;;;;;5081876;28;20200;-73
2021/05/23 08:35:46;;;;;;;4.43;2.10;;;12.60;99.90;;;;;;5081297;28;20242;-73
2021/05/23 08:38:14;;;;;;;5.23;1.90;;;12.80;99.90;;;;;;5074869;28;20199;-72
2021/05/23 08:40:43;;;;;;;2.53;1.70;;;13.60;99.90;;;;;;5077372;28;20200;-72
2021/05/23 08:43:15;;;;;;;3.07;1.80;;;14.30;99.90;;;;;;5077759;28;20650;-74
2021/05/23 08:45:43;;;;;;;6.03;1.60;;;15.00;99.90;;;;;;5078709;28;20187;-73
2021/05/23 08:48:12;;;;;;;2.67;1.70;;;15.70;99.90;;;;;;5081171;28;20190;-74
2021/05/23 08:50:39;;;;;;;4.20;1.80;;;16.30;99.90;;;;;;5066299;28;20286;-74
2021/05/23 08:53:08;;;;;;;8.13;2.10;;;16.30;99.90;;;;;;5085506;28;20198;-74
2021/05/23 08:55:38;;;;;;;3.67;1.97;;;16.80;99.90;;;;;;5086136;28;20219;-74
2021/05/23 08:58:07;;;;;;;7.23;1.80;;;16.10;99.90;;;;;;5082737;28;20680;-74
2021/05/23 09:00:36;;;;;;;8.63;2.20;;;14.90;99.90;;;;;;5087154;27;20204;-73
2021/05/23 09:03:05;;;;;;;3.67;1.80;;;14.40;99.90;;;;;;5085842;28;20196;-73
2021/05/23 09:05:36;;;;;;;3.17;1.70;;;14.80;99.90;;;;;;5090413;28;20287;-73
2021/05/23 09:08:08;;;;;;;4.93;1.87;;;15.20;99.90;;;;;;5109450;27;20192;-74
2021/05/23 09:10:38;;;;;;;7.70;2.40;;;14.50;99.90;;;;;;5089232;28;20221;-73
2021/05/23 09:13:07;;;;;;;6.80;2.00;;;14.00;99.90;;;;;;5087538;28;20200;-73
2021/05/23 09:15:35;;;;;;;5.50;1.90;;;13.70;99.90;;;;;;5089139;28;20237;-73
2021/05/23 09:18:06;;;;;;;4.90;1.80;;;13.30;99.90;;;;;;5091334;28;20229;-74
2021/05/23 09:20:37;;;;;;;7.53;1.80;;;13.60;99.90;;;;;;5077251;28;20270;-73
2021/05/23 09:23:10;;;;;;;8.33;2.33;;;13.50;99.90;;;;;;5080056;28;20219;-73
2021/05/23 09:25:39;;;;;;;5.20;1.97;;;13.40;99.90;;;;;;5084954;28;20203;-73
2021/05/23 09:28:08;;;;;;;4.83;1.83;;;13.30;99.90;;;;;;5071552;28;20188;-73
2021/05/23 09:30:39;;;;;;;8.37;1.87;;;13.30;99.90;;;;;;5086616;28;20190;-73
2021/05/23 09:33:11;;;;;;;5.37;2.20;;;13.40;99.90;;;;;;5086662;28;20635;-73
2021/05/23 09:35:43;;;;;;;5.13;1.77;;;13.80;99.90;;;;;;5087927;28;20752;-74
2021/05/23 09:38:14;;;;;;;3.57;1.60;;;14.90;99.90;;;;;;5088384;28;20791;-73
2021/05/23 09:40:43;;;;;;;6.10;1.73;;;15.80;99.90;;;;;;5087318;28;20669;-74
2021/05/23 09:43:19;;;;;;;4.10;1.60;;;16.00;99.90;;;;;;5089716;28;20195;-73
2021/05/23 09:45:49;;;;;;;5.97;1.60;;;16.00;99.90;;;;;;5084241;28;20182;-72
2021/05/23 09:48:20;;;;;;;4.50;1.93;;;15.40;99.90;;;;;;5087058;28;20219;-73
2021/05/23 09:50:50;;;;;;;3.63;1.80;;;14.60;99.90;;;;;;5089665;28;20587;-73
2021/05/23 09:53:23;;;;;;;4.23;1.80;;;14.00;99.90;;;;;;5082555;28;20282;-73
2021/05/23 09:56:02;;;;;;;6.80;2.20;;;13.70;99.90;;;;;;5084572;28;20208;-73
2021/05/23 09:58:33;;;;;;;3.73;1.70;;;13.70;99.90;;;;;;5092926;28;20264;-73
2021/05/23 10:01:01;;;;;;;3.53;1.90;;;13.60;99.90;;;;;;5090411;28;20910;-73
2021/05/23 10:03:31;;;;;;;6.57;2.00;;;13.80;99.90;;;;;;5089433;28;20679;-73
2021/05/23 10:06:00;;;;;;;5.73;1.90;;;15.00;99.90;;;;;;5080728;28;20736;-73
2021/05/23 10:08:29;;;;;;;3.40;1.70;;;16.40;99.90;;;;;;5097504;28;20282;-73
2021/05/23 10:10:58;;;;;;;3.63;1.50;;;17.00;99.90;;;;;;5084855;28;20211;-74
2021/05/23 10:13:27;;;;;;;4.20;1.70;;;17.40;99.90;;;;;;5088500;28;20246;-73
2021/05/23 10:15:57;;;;;;;1.70;1.60;;;16.60;99.90;;;;;;5096253;28;20223;-73
2021/05/23 10:18:28;;;;;;;3.70;2.00;;;15.60;99.90;;;;;;5089817;28;20600;-73
2021/05/23 10:20:58;;;;;;;3.93;1.70;;;15.10;99.90;;;;;;5084984;28;20224;-74
2021/05/23 10:23:31;;;;;;;2.93;1.60;;;15.40;99.90;;;;;;5077165;28;20228;-74
2021/05/23 10:26:02;;;;;;;5.10;1.80;;;16.60;99.90;;;;;;5091287;28;20198;-74
2021/05/23 10:28:36;;;;;;;5.47;1.80;;;16.80;99.90;;;;;;5085121;28;20195;-74
2021/05/23 10:31:14;;;;;;;7.17;1.87;;;16.40;99.90;;;;;;5093738;28;20868;-72
2021/05/23 10:33:53;;;;;;;5.40;1.83;;;16.10;99.90;;;;;;5082055;28;20206;-74
2021/05/23 10:36:32;;;;;;;2.57;1.40;;;16.60;99.90;;;;;;5088691;28;20223;-74
2021/05/23 10:39:02;;;;;;;3.30;1.73;;;17.30;99.90;;;;;;5083951;28;20268;-73
2021/05/23 10:41:30;;;;;;;5.53;1.90;;;17.40;99.90;;;;;;5092611;28;20203;-73
2021/05/23 10:44:18;;;;;;;4.43;1.90;;;17.30;99.90;;;;;;5096418;28;20294;-74
2021/05/23 10:46:50;;;;;;;2.43;1.40;;;17.30;99.90;;;;;;5078726;28;20196;-74
2021/05/23 10:49:18;;;;;;;6.13;1.90;;;17.60;99.90;;;;;;5092076;28;20187;-74
2021/05/23 10:51:53;;;;;;;6.40;1.90;;;17.20;99.90;;;;;;5104260;28;20191;-74
2021/05/23 10:54:20;;;;;;;4.97;2.00;;;16.30;99.90;;;;;;5089161;28;20293;-74
2021/05/23 10:56:58;;;;;;;8.87;1.97;;;16.00;99.90;;;;;;5090845;28;20618;-73
2021/05/23 10:59:29;;;;;;;3.83;1.50;;;16.10;99.90;;;;;;5079493;28;20606;-74
2021/05/23 11:01:58;;;;;;;5.03;1.90;;;16.10;99.90;;;;;;5094195;28;20219;-73
2021/05/23 11:04:35;;;;;;;6.00;1.80;;;15.90;99.90;;;;;;5088253;28;20241;-74
2021/05/23 11:07:08;;;;;;;3.30;1.70;;;16.00;99.90;;;;;;5079035;28;20260;-75
2021/05/23 11:09:36;;;;;;;3.47;1.80;;;16.10;99.90;;;;;;5086122;28;20196;-73
2021/05/23 11:12:07;;;;;;;3.80;1.60;;;15.90;99.90;;;;;;5087040;28;20191;-73
2021/05/23 11:14:35;;;;;;;2.63;1.60;;;15.90;99.90;;;;;;5085259;28;20205;-74
2021/05/23 11:17:08;;;;;;;1.73;1.53;;;16.30;99.90;;;;;;5094592;28;20246;-73
2021/05/23 11:19:36;;;;;;;3.97;1.50;;;16.80;99.90;;;;;;5096835;28;20203;-73
2021/05/23 11:22:04;;;;;;;2.00;1.27;;;16.90;99.90;;;;;;5085916;28;20190;-74
2021/05/23 11:24:34;;;;;;;3.90;1.40;;;16.80;99.90;;;;;;5087420;28;20187;-74
2021/05/23 11:27:10;;;;;;;8.77;1.60;;;17.00;99.90;;;;;;5083198;28;20802;-74
2021/05/23 11:29:38;;;;;;;4.10;1.80;;;16.70;99.90;;;;;;5080853;28;20182;-75
2021/05/23 11:32:13;;;;;;;5.87;1.30;;;16.70;99.90;;;;;;5091724;28;20187;-74
2021/05/23 11:34:41;;;;;;;3.87;1.40;;;16.60;99.90;;;;;;5095495;28;20197;-73
2021/05/23 11:37:09;;;;;;;5.87;1.80;;;16.30;99.90;;;;;;5088123;28;20696;-74
2021/05/23 11:39:37;;;;;;;3.03;1.30;;;16.10;99.90;;;;;;5089510;28;20645;-74
2021/05/23 11:42:06;;;;;;;3.03;1.50;;;15.80;99.90;;;;;;5089352;28;20193;-74
2021/05/23 11:44:35;;;;;;;4.60;1.63;;;15.90;99.90;;;;;;5089651;28;20711;-74
2021/05/23 11:47:03;;;;;;;2.93;1.40;;;16.60;99.90;;;;;;5080634;28;20262;-74
2021/05/23 11:49:34;;;;;;;2.83;1.60;;;16.70;99.90;;;;;;5088990;28;20723;-74
2021/05/23 11:52:05;;;;;;;2.10;1.30;;;17.10;99.90;;;;;;5070729;28;20547;-73
2021/05/23 11:54:33;;;;;;;2.77;1.40;;;16.80;99.90;;;;;;5084280;28;20742;-74
2021/05/23 11:57:03;;;;;;;4.07;1.50;;;16.40;99.90;;;;;;5095495;28;20726;-74
2021/05/23 11:59:32;;;;;;;2.17;1.40;;;16.10;99.90;;;;;;5082162;28;20620;-74
2021/05/23 12:02:00;;;;;;;2.23;1.30;;;16.20;99.90;;;;;;5084822;28;20662;-73
2021/05/23 12:04:29;;;;;;;1.27;1.17;;;16.70;99.90;;;;;;5075868;28;20201;-74
2021/05/23 12:06:58;;;;;;;5.73;1.60;;;17.00;99.90;;;;;;5083916;28;20241;-73
2021/05/23 12:09:28;;;;;;;3.03;1.40;;;17.00;99.90;;;;;;5080197;28;20843;-73
2021/05/23 12:11:58;;;;;;;2.93;1.83;;;16.80;99.90;;;;;;5074462;28;20204;-73
2021/05/23 12:14:31;;;;;;;1.53;1.27;;;17.00;99.90;;;;;;5083054;28;20683;-74
2021/05/23 12:17:02;;;;;;;1.93;1.63;;;17.10;99.90;;;;;;5079444;28;20213;-74
2021/05/23 12:19:46;;;;;;;1.93;1.30;;;16.60;99.90;;;;;;5079801;28;20727;-73
2021/05/23 12:22:18;;;;;;;1.83;1.40;;;16.40;99.90;;;;;;5075225;28;20189;-73
2021/05/23 12:24:46;;;;;;;1.50;1.43;;;16.30;99.90;;;;;;5059410;28;20249;-74
2021/05/23 12:27:25;;;;;;;4.40;1.70;;;16.40;99.90;;;;;;5086994;28;20180;-74
2021/05/23 12:29:53;;;;;;;2.40;1.50;;;16.70;99.90;;;;;;5090125;28;20220;-73
2021/05/23 12:32:21;;;;;;;2.13;1.30;;;17.10;99.90;;;;;;5086305;28;20608;-73
2021/05/23 12:34:49;;;;;;;4.00;1.60;;;17.20;99.90;;;;;;5080176;28;20598;-73
2021/05/23 12:37:22;;;;;;;1.40;1.30;;;17.10;99.90;;;;;;5076986;28;20294;-74
2021/05/23 12:39:51;;;;;;;1.30;1.30;;;16.90;99.90;;;;;;5078759;28;20231;-72
2021/05/23 12:42:19;;;;;;;3.20;1.40;;;16.70;99.90;;;;;;5085246;28;20192;-73
2021/05/23 12:44:47;;;;;;;2.57;1.40;;;16.60;99.90;;;;;;5082657;28;20183;-74
2021/05/23 12:47:16;;;;;;;5.27;1.43;;;16.70;99.90;;;;;;5082166;28;20778;-73
2021/05/23 12:49:45;;;;;;;2.63;1.20;;;16.80;99.90;;;;;;5081011;28;20200;-74
2021/05/23 12:52:16;;;;;;;3.50;1.40;;;16.90;99.90;;;;;;5079508;28;20208;-73
2021/05/23 12:54:45;;;;;;;1.43;1.30;;;16.90;99.90;;;;;;5083681;28;20636;-73
2021/05/23 12:57:13;;;;;;;2.27;1.40;;;16.80;99.90;;;;;;5082666;28;20203;-73
2021/05/23 12:59:43;;;;;;;2.40;1.50;;;16.70;99.90;;;;;;5079743;28;20191;-72